createdAt,value
2022-12-11T00:00:25.476Z,15.32
2022-12-11T00:02:51.991Z,12.73
2022-12-11T00:05:18.574Z,14.73
2022-12-11T00:07:45.005Z,13.90
2022-12-11T00:10:11.456Z,14.18
2022-12-11T00:12:37.856Z,13.82
2022-12-11T00:15:04.563Z,15.82
2022-12-11T00:17:30.984Z,14.25
2022-12-11T00:19:57.370Z,13.93
2022-12-11T00:22:23.825Z,15.23
2022-12-11T00:24:51.274Z,14.35
2022-12-11T00:27:17.685Z,13.77
2022-12-11T00:29:44.252Z,14.80
2022-12-11T00:32:10.677Z,14.80
2022-12-11T00:34:37.180Z,14.98
2022-12-11T00:37:03.749Z,16.60
2022-12-11T00:39:30.210Z,15.35
2022-12-11T00:41:56.712Z,14.65
2022-12-11T00:44:23.071Z,14.87
2022-12-11T00:46:49.642Z,13.48
2022-12-11T00:49:16.312Z,15.90
2022-12-11T00:51:42.706Z,14.80
2022-12-11T00:54:09.126Z,14.23
2022-12-11T00:56:35.523Z,13.47
2022-12-11T00:59:01.947Z,14.20
2022-12-11T01:01:28.360Z,16.40
2022-12-11T01:03:54.843Z,15.38
2022-12-11T01:06:26.991Z,14.93
2022-12-11T01:09:14.472Z,15.37
2022-12-11T01:11:42.931Z,16.23
2022-12-11T01:14:12.997Z,16.25
2022-12-11T01:16:39.506Z,14.23
2022-12-11T01:19:05.999Z,14.68
2022-12-11T01:21:32.459Z,14.63
2022-12-11T01:23:58.943Z,15.18
2022-12-11T01:26:25.672Z,16.10
2022-12-11T01:28:52.256Z,16.00
2022-12-11T01:31:20.024Z,15.55
2022-12-11T01:33:46.723Z,16.03
2022-12-11T01:36:19.416Z,15.90
2022-12-11T01:38:48.205Z,17.83
2022-12-11T01:41:15.806Z,14.88
2022-12-11T01:44:21.161Z,15.35
2022-12-11T01:46:47.598Z,15.43
2022-12-11T01:49:16.613Z,15.13
2022-12-11T01:51:53.344Z,15.02
2022-12-11T01:54:23.476Z,14.52
2022-12-11T01:56:52.967Z,17.30
2022-12-11T01:59:24.597Z,15.70
2022-12-11T02:02:03.177Z,16.60
2022-12-11T02:04:30.908Z,16.52
2022-12-11T02:06:57.474Z,15.82
2022-12-11T02:09:26.997Z,15.23
2022-12-11T02:12:08.620Z,16.97
2022-12-11T02:14:57.233Z,15.20
2022-12-11T02:17:29.200Z,14.95
2022-12-11T02:20:11.529Z,13.98
2022-12-11T02:23:15.286Z,15.82
2022-12-11T02:26:12.883Z,16.17
2022-12-11T02:29:00.161Z,14.77
2022-12-11T02:31:36.423Z,14.48
2022-12-11T02:34:02.844Z,15.88
2022-12-11T02:36:35.043Z,17.33
2022-12-11T02:39:03.665Z,14.70
2022-12-11T02:41:32.410Z,13.88
2022-12-11T02:44:01.376Z,15.70
2022-12-11T02:46:29.547Z,14.95
2022-12-11T02:48:56.585Z,13.93
2022-12-11T02:51:28.570Z,14.83
2022-12-11T02:53:58.879Z,15.77
2022-12-11T02:56:42.039Z,17.05
2022-12-11T02:59:18.979Z,14.57
2022-12-11T03:01:46.597Z,16.38
2022-12-11T03:04:13.499Z,15.20
2022-12-11T03:06:44.826Z,14.73
2022-12-11T03:09:11.282Z,14.25
2022-12-11T03:11:37.745Z,14.52
2022-12-11T03:14:05.311Z,16.08
2022-12-11T03:16:36.618Z,13.83
2022-12-11T03:19:10.488Z,14.95
2022-12-11T03:21:45.533Z,14.73
2022-12-11T03:24:18.593Z,14.23
2022-12-11T03:26:56.331Z,15.13
2022-12-11T03:29:29.822Z,14.87
2022-12-11T03:32:12.182Z,14.00
2022-12-11T03:34:44.526Z,15.88
2022-12-11T03:37:12.817Z,13.18
2022-12-11T03:39:44.258Z,15.02
2022-12-11T03:42:13.881Z,16.37
2022-12-11T03:44:43.278Z,14.23
2022-12-11T03:47:10.558Z,15.38
2022-12-11T03:49:42.062Z,13.75
2022-12-11T03:52:12.202Z,14.32
2022-12-11T03:54:40.813Z,14.53
2022-12-11T03:57:09.452Z,15.52
2022-12-11T03:59:35.855Z,13.80
2022-12-11T04:02:02.331Z,13.73
2022-12-11T04:04:28.857Z,15.32
2022-12-11T04:06:55.308Z,14.27
2022-12-11T04:09:21.700Z,14.63
2022-12-11T04:11:48.096Z,14.02
2022-12-11T04:14:33.125Z,14.45
2022-12-11T04:17:00.987Z,12.77
2022-12-11T04:19:45.998Z,13.60
2022-12-11T04:22:33.310Z,13.15
2022-12-11T04:25:00.842Z,13.52
2022-12-11T04:27:46.459Z,13.20
2022-12-11T04:30:18.433Z,13.63
2022-12-11T04:32:44.920Z,13.07
2022-12-11T04:35:12.457Z,13.23
2022-12-11T04:37:39.800Z,13.95
2022-12-11T04:40:09.089Z,13.25
2022-12-11T04:42:35.547Z,13.90
2022-12-11T04:45:01.956Z,13.10
2022-12-11T04:47:28.380Z,13.40
2022-12-11T04:49:54.780Z,12.00
2022-12-11T04:52:21.191Z,13.52
2022-12-11T04:54:47.834Z,13.93
2022-12-11T04:57:14.333Z,12.17
2022-12-11T04:59:40.722Z,12.63
2022-12-11T05:02:07.176Z,14.25
2022-12-11T05:04:35.024Z,12.52
2022-12-11T05:07:02.005Z,12.25
2022-12-11T05:09:28.534Z,10.93
2022-12-11T05:11:56.185Z,10.90
2022-12-11T05:14:22.589Z,10.82
2022-12-11T05:16:49.006Z,11.35
2022-12-11T05:19:15.658Z,12.55
2022-12-11T05:21:42.137Z,10.40
2022-12-11T05:24:08.862Z,9.77
2022-12-11T05:26:35.296Z,10.80
2022-12-11T05:29:01.879Z,11.05
2022-12-11T05:31:28.439Z,10.32
2022-12-11T05:33:54.914Z,11.37
2022-12-11T05:36:27.426Z,12.13
2022-12-11T05:38:54.632Z,11.82
2022-12-11T05:41:24.447Z,10.52
2022-12-11T05:43:51.920Z,10.88
2022-12-11T05:46:20.838Z,10.07
2022-12-11T05:48:50.852Z,10.40
2022-12-11T05:51:17.896Z,10.10
2022-12-11T05:53:45.780Z,10.65
2022-12-11T05:56:18.918Z,10.68
2022-12-11T05:58:48.019Z,11.30
2022-12-11T06:01:18.126Z,10.57
2022-12-11T06:03:44.737Z,11.15
2022-12-11T06:06:11.277Z,9.20
2022-12-11T06:08:38.015Z,10.68
2022-12-11T06:11:05.020Z,10.77
2022-12-11T06:13:31.802Z,10.05
2022-12-11T06:16:02.860Z,11.38
2022-12-11T06:18:29.489Z,10.20
2022-12-11T06:20:55.944Z,11.07
2022-12-11T06:23:22.439Z,10.27
2022-12-11T06:25:49.097Z,12.18
2022-12-11T06:28:15.527Z,10.65
2022-12-11T06:30:41.996Z,11.32
2022-12-11T06:33:08.460Z,11.35
2022-12-11T06:35:41.435Z,10.67
2022-12-11T06:38:09.216Z,11.25
2022-12-11T06:40:35.718Z,11.90
2022-12-11T06:43:02.285Z,13.13
2022-12-11T06:45:28.737Z,12.88
2022-12-11T06:47:55.659Z,11.40
2022-12-11T06:50:22.075Z,12.73
2022-12-11T06:52:48.501Z,11.60
2022-12-11T06:55:14.931Z,12.77
2022-12-11T06:57:41.369Z,12.00
2022-12-11T07:00:08.329Z,11.93
2022-12-11T07:02:34.787Z,12.52
2022-12-11T07:05:01.312Z,17.70
2022-12-11T07:07:27.732Z,13.32
2022-12-11T07:09:54.166Z,15.40
2022-12-11T07:12:21.116Z,15.60
2022-12-11T07:14:47.792Z,16.00
2022-12-11T07:17:14.399Z,14.55
2022-12-11T07:19:40.984Z,18.58
2022-12-11T07:22:07.538Z,17.20
2022-12-11T07:24:34.140Z,17.33
2022-12-11T07:27:00.556Z,22.63
2022-12-11T07:29:27.005Z,21.52
2022-12-11T07:31:53.550Z,16.58
2022-12-11T07:34:20.034Z,19.55
2022-12-11T07:36:46.461Z,25.40
2022-12-11T07:39:13.046Z,16.25
2022-12-11T07:41:40.174Z,38.05
2022-12-11T07:44:06.547Z,25.20
2022-12-11T07:46:34.325Z,31.63
2022-12-11T07:49:01.516Z,81.53
2022-12-11T07:51:32.829Z,46.05
2022-12-11T07:54:03.216Z,18.48
2022-12-11T07:56:30.903Z,14.27
2022-12-11T07:59:00.123Z,12.35
2022-12-11T08:01:28.976Z,12.13
2022-12-11T08:03:56.145Z,16.25
2022-12-11T08:06:28.636Z,20.67
2022-12-11T08:08:56.469Z,29.70
2022-12-11T08:11:22.879Z,31.92
2022-12-11T08:13:49.762Z,14.07
2022-12-11T08:16:16.898Z,13.02
2022-12-11T08:18:45.312Z,13.63
2022-12-11T08:21:14.936Z,14.55
2022-12-11T08:23:42.016Z,12.55
2022-12-11T08:26:22.088Z,14.53
2022-12-11T08:28:48.491Z,13.40
2022-12-11T08:31:16.559Z,12.82
2022-12-11T08:33:44.314Z,12.80
2022-12-11T08:36:13.804Z,14.77
2022-12-11T08:38:40.672Z,13.97
2022-12-11T08:41:21.033Z,12.63
2022-12-11T08:43:48.379Z,13.02
2022-12-11T08:46:15.387Z,13.77
2022-12-11T08:48:43.293Z,14.05
2022-12-11T08:51:15.175Z,13.03
2022-12-11T08:53:41.913Z,13.55
2022-12-11T08:56:16.745Z,14.02
2022-12-11T08:58:44.696Z,10.50
2022-12-11T09:01:14.680Z,9.85
2022-12-11T09:03:42.471Z,11.10
2022-12-11T09:06:14.683Z,10.70
2022-12-11T09:08:43.945Z,12.07
2022-12-11T09:11:17.017Z,13.70
2022-12-11T09:13:44.090Z,14.45
2022-12-11T09:16:16.695Z,12.83
2022-12-11T09:18:45.734Z,12.50
2022-12-11T09:21:14.050Z,13.50
2022-12-11T09:23:41.162Z,13.00
2022-12-11T09:26:11.112Z,12.68
2022-12-11T09:28:42.856Z,12.83
2022-12-11T09:31:18.782Z,13.13
2022-12-11T09:33:46.762Z,12.90
2022-12-11T09:36:13.677Z,12.13
2022-12-11T09:38:40.185Z,13.70
2022-12-11T09:41:22.432Z,12.33
2022-12-11T09:43:58.202Z,12.52
2022-12-11T09:46:25.781Z,9.80
2022-12-11T09:48:54.162Z,11.85
2022-12-11T09:51:32.215Z,12.63
2022-12-11T09:54:02.867Z,12.17
2022-12-11T09:56:33.397Z,12.35
2022-12-11T09:59:31.951Z,11.98
2022-12-11T10:02:25.681Z,10.73
2022-12-11T10:05:15.603Z,12.50
2022-12-11T10:07:53.648Z,11.67
2022-12-11T10:10:38.330Z,12.50
2022-12-11T10:13:26.317Z,11.70
2022-12-11T10:16:02.015Z,13.73
2022-12-11T10:18:31.003Z,12.90
2022-12-11T10:21:00.759Z,12.20
2022-12-11T10:23:44.116Z,12.38
2022-12-11T10:26:17.517Z,10.40
2022-12-11T10:28:44.228Z,12.20
2022-12-11T10:31:28.674Z,12.15
2022-12-11T10:34:01.313Z,11.97
2022-12-11T10:36:35.114Z,11.32
2022-12-11T10:39:02.568Z,10.60
2022-12-11T10:41:39.801Z,10.10
2022-12-11T10:44:16.566Z,11.50
2022-12-11T10:46:43.959Z,9.80
2022-12-11T10:49:29.887Z,11.05
2022-12-11T10:51:57.472Z,9.98
2022-12-11T10:54:33.693Z,10.27
2022-12-11T10:57:02.362Z,9.30
2022-12-11T10:59:40.064Z,9.37
2022-12-11T11:02:16.030Z,9.63
2022-12-11T11:04:44.838Z,11.27
2022-12-11T11:07:19.348Z,8.25
2022-12-11T11:09:48.421Z,10.02
2022-12-11T11:12:18.828Z,8.37
2022-12-11T11:14:45.506Z,10.00
2022-12-11T11:17:17.422Z,9.80
2022-12-11T11:19:47.980Z,9.13
2022-12-11T11:22:17.713Z,9.57
2022-12-11T11:24:56.889Z,8.53
2022-12-11T11:27:34.184Z,9.05
2022-12-11T11:30:04.477Z,9.15
2022-12-11T11:32:38.690Z,8.98
2022-12-11T11:35:26.757Z,10.50
2022-12-11T11:38:11.782Z,10.10
2022-12-11T11:40:45.658Z,11.10
2022-12-11T11:43:48.269Z,10.80
2022-12-11T11:46:36.563Z,11.75
2022-12-11T11:49:30.751Z,9.95
2022-12-11T11:52:17.918Z,9.33
2022-12-11T11:54:52.443Z,10.00
2022-12-11T11:57:27.997Z,9.13
2022-12-11T11:59:59.312Z,10.80
2022-12-11T12:02:25.761Z,17.65
2022-12-11T12:04:53.166Z,11.03
2022-12-11T12:07:55.194Z,9.65
2022-12-11T12:10:26.728Z,9.23
2022-12-11T12:13:23.963Z,12.85
2022-12-11T12:16:00.114Z,17.10
2022-12-11T12:18:35.701Z,13.43
2022-12-11T12:21:44.715Z,11.77
2022-12-11T12:24:35.605Z,12.00
2022-12-11T12:27:51.613Z,13.77
2022-12-11T12:30:22.823Z,9.32
2022-12-11T12:33:14.936Z,10.23
2022-12-11T12:36:06.904Z,12.93
2022-12-11T12:38:57.817Z,10.38
2022-12-11T12:41:49.342Z,17.15
2022-12-11T12:44:18.516Z,16.92
2022-12-11T12:47:00.623Z,10.90
2022-12-11T12:49:38.482Z,11.90
2022-12-11T12:52:07.222Z,16.65
2022-12-11T12:54:35.599Z,18.40
2022-12-11T12:57:03.420Z,25.42
2022-12-11T12:59:30.168Z,13.53
2022-12-11T13:01:59.544Z,10.35
2022-12-11T13:04:55.656Z,11.38
2022-12-11T13:07:29.503Z,12.65
2022-12-11T13:10:04.448Z,13.63
2022-12-11T13:12:43.776Z,11.03
2022-12-11T13:15:45.753Z,12.95
2022-12-11T13:18:33.322Z,9.45
2022-12-11T13:21:00.067Z,11.88
2022-12-11T13:23:31.042Z,11.45
2022-12-11T13:26:00.544Z,11.20
2022-12-11T13:28:28.740Z,11.32
2022-12-11T13:31:07.553Z,13.27
2022-12-11T13:33:41.525Z,14.90
2022-12-11T13:36:16.757Z,16.38
2022-12-11T13:38:56.533Z,13.97
2022-12-11T13:41:23.700Z,12.25
2022-12-11T13:43:52.024Z,12.57
2022-12-11T13:46:26.815Z,14.30
2022-12-11T13:49:06.797Z,12.13
2022-12-11T13:51:37.978Z,11.80
2022-12-11T13:54:16.345Z,13.25
2022-12-11T13:56:55.165Z,12.52
2022-12-11T13:59:31.048Z,10.68
2022-12-11T14:02:01.247Z,13.00
2022-12-11T14:04:28.787Z,13.27
2022-12-11T14:06:56.451Z,31.38
2022-12-11T14:09:26.328Z,21.70
2022-12-11T14:11:57.060Z,17.23
2022-12-11T14:14:42.091Z,15.40
2022-12-11T14:17:18.169Z,17.20
2022-12-11T14:19:48.540Z,17.00
2022-12-11T14:22:22.770Z,16.40
2022-12-11T14:24:51.289Z,17.40
2022-12-11T14:27:18.989Z,16.25
2022-12-11T14:29:45.647Z,14.80
2022-12-11T14:32:35.082Z,23.70
2022-12-11T14:35:05.498Z,22.40
2022-12-11T14:37:33.836Z,41.47
2022-12-11T14:40:14.668Z,37.83
2022-12-11T14:42:52.490Z,19.37
2022-12-11T14:45:34.333Z,16.83
2022-12-11T14:48:03.916Z,15.93
2022-12-11T14:50:47.507Z,18.23
2022-12-11T14:53:28.316Z,21.55
2022-12-11T14:55:57.921Z,20.10
2022-12-11T14:58:26.728Z,14.77
2022-12-11T15:01:02.805Z,14.68
2022-12-11T15:03:40.875Z,23.02
2022-12-11T15:06:43.921Z,18.90
2022-12-11T15:09:22.056Z,15.17
2022-12-11T15:11:50.892Z,13.57
2022-12-11T15:14:19.972Z,13.23
2022-12-11T15:16:48.326Z,13.40
2022-12-11T15:19:20.713Z,14.27
2022-12-11T15:21:47.721Z,12.50
2022-12-11T15:24:39.228Z,13.23
2022-12-11T15:27:06.891Z,11.77
2022-12-11T15:29:39.253Z,12.23
2022-12-11T15:32:08.506Z,13.18
2022-12-11T15:34:43.497Z,12.57
2022-12-11T15:37:26.629Z,13.50
2022-12-11T15:39:54.587Z,13.38
2022-12-11T15:42:30.140Z,14.00
2022-12-11T15:44:57.152Z,16.48
2022-12-11T15:47:27.187Z,13.73
2022-12-11T15:49:57.963Z,13.55
2022-12-11T15:52:24.393Z,12.70
2022-12-11T15:54:50.947Z,11.65
2022-12-11T15:57:20.163Z,12.68
2022-12-11T15:59:48.804Z,12.23
2022-12-11T16:02:15.788Z,12.88
2022-12-11T16:04:42.285Z,13.75
2022-12-11T16:07:23.697Z,15.25
2022-12-11T16:09:50.408Z,16.63
2022-12-11T16:12:17.051Z,13.27
2022-12-11T16:14:45.070Z,13.27
2022-12-11T16:17:13.314Z,14.57
2022-12-11T16:19:40.899Z,14.40
2022-12-11T16:22:10.919Z,15.70
2022-12-11T16:24:38.115Z,16.77
2022-12-11T16:27:05.415Z,12.77
2022-12-11T16:29:40.067Z,16.52
2022-12-11T16:32:08.400Z,14.35
2022-12-11T16:34:37.520Z,14.85
2022-12-11T16:37:08.073Z,13.63
2022-12-11T16:39:36.828Z,13.15
2022-12-11T16:42:05.626Z,13.07
2022-12-11T16:44:32.399Z,13.07
2022-12-11T16:46:59.048Z,12.48
2022-12-11T16:49:25.604Z,12.03
2022-12-11T16:51:51.973Z,13.15
2022-12-11T16:54:18.735Z,12.30
2022-12-11T16:56:45.588Z,12.48
2022-12-11T16:59:12.874Z,13.02
2022-12-11T17:01:39.598Z,15.93
2022-12-11T17:04:06.161Z,13.38
2022-12-11T17:06:33.438Z,12.73
2022-12-11T17:08:59.823Z,12.18
2022-12-11T17:11:26.310Z,25.63
2022-12-11T17:13:57.687Z,16.07
2022-12-11T17:16:26.135Z,14.02
2022-12-11T17:18:53.028Z,11.73
2022-12-11T17:21:20.794Z,14.07
2022-12-11T17:23:47.180Z,11.13
2022-12-11T17:26:14.529Z,13.90
2022-12-11T17:28:41.000Z,16.05
2022-12-11T17:31:15.071Z,10.70
2022-12-11T17:33:41.857Z,11.95
2022-12-11T17:36:08.785Z,11.32
2022-12-11T17:38:35.744Z,11.17
2022-12-11T17:41:06.317Z,12.73
2022-12-11T17:43:32.715Z,10.93
2022-12-11T17:45:59.201Z,10.73
2022-12-11T17:48:25.940Z,10.45
2022-12-11T17:50:53.016Z,10.50
2022-12-11T17:53:21.635Z,9.90
2022-12-11T17:55:48.750Z,10.63
2022-12-11T17:58:21.868Z,9.68
2022-12-11T18:00:51.139Z,10.63
2022-12-11T18:03:18.680Z,10.50
2022-12-11T18:05:48.907Z,10.23
2022-12-11T18:08:18.354Z,10.25
2022-12-11T18:10:45.393Z,9.98
2022-12-11T18:13:12.681Z,45.65
2022-12-11T18:15:39.767Z,47.80
2022-12-11T18:18:06.870Z,13.65
2022-12-11T18:20:37.579Z,11.70
2022-12-11T18:23:04.956Z,11.05
2022-12-11T18:25:31.555Z,10.65
2022-12-11T18:27:59.518Z,10.33
2022-12-11T18:30:26.098Z,10.63
2022-12-11T18:32:52.557Z,11.75
2022-12-11T18:35:19.443Z,14.40
2022-12-11T18:37:46.167Z,12.00
2022-12-11T18:40:12.650Z,21.50
2022-12-11T18:42:39.161Z,15.85
2022-12-11T18:45:06.963Z,18.40
2022-12-11T18:47:34.022Z,17.38
2022-12-11T18:50:07.107Z,16.02
2022-12-11T18:52:34.320Z,13.17
2022-12-11T18:55:00.968Z,11.90
2022-12-11T18:57:27.391Z,12.38
2022-12-11T18:59:53.974Z,11.45
2022-12-11T19:02:21.552Z,12.38
2022-12-11T19:04:48.022Z,10.90
2022-12-11T19:07:14.464Z,10.57
2022-12-11T19:09:46.252Z,11.68
2022-12-11T19:12:14.502Z,15.95
2022-12-11T19:14:41.494Z,29.98
2022-12-11T19:17:08.097Z,21.07
2022-12-11T19:19:35.812Z,13.80
2022-12-11T19:22:02.297Z,18.73
2022-12-11T19:24:28.690Z,16.02
2022-12-11T19:26:55.172Z,11.05
2022-12-11T19:29:25.419Z,19.50
2022-12-11T19:31:52.064Z,17.42
2022-12-11T19:34:18.712Z,13.32
2022-12-11T19:36:45.214Z,10.48
2022-12-11T19:39:13.402Z,9.30
2022-12-11T19:41:40.784Z,8.97
2022-12-11T19:44:08.268Z,11.57
2022-12-11T19:46:35.413Z,12.35
2022-12-11T19:49:02.974Z,9.23
2022-12-11T19:51:40.711Z,10.40
2022-12-11T19:54:08.944Z,10.33
2022-12-11T19:56:35.672Z,9.00
2022-12-11T19:59:03.837Z,9.40
2022-12-11T20:01:32.627Z,8.55
2022-12-11T20:04:03.772Z,8.70
2022-12-11T20:06:32.418Z,9.27
2022-12-11T20:08:59.767Z,10.38
2022-12-11T20:11:26.402Z,8.23
2022-12-11T20:13:55.427Z,8.90
2022-12-11T20:16:39.499Z,9.57
2022-12-11T20:19:08.644Z,8.03
2022-12-11T20:21:35.088Z,8.73
2022-12-11T20:24:01.500Z,9.50
2022-12-11T20:26:29.513Z,9.38
2022-12-11T20:28:56.087Z,9.02
2022-12-11T20:31:24.958Z,9.43
2022-12-11T20:33:52.807Z,9.88
2022-12-11T20:36:21.912Z,10.68
2022-12-11T20:38:49.517Z,10.80
2022-12-11T20:41:19.465Z,9.93
2022-12-11T20:43:46.975Z,9.37
2022-12-11T20:46:17.562Z,10.30
2022-12-11T20:48:44.902Z,8.85
2022-12-11T20:51:14.275Z,9.20
2022-12-11T20:53:42.409Z,9.25
2022-12-11T20:56:17.840Z,9.20
2022-12-11T20:58:45.275Z,9.20
2022-12-11T21:01:21.260Z,9.63
2022-12-11T21:03:49.031Z,9.93
2022-12-11T21:06:20.176Z,9.30
2022-12-11T21:08:46.636Z,12.97
2022-12-11T21:11:13.440Z,11.60
2022-12-11T21:13:40.157Z,10.63
2022-12-11T21:16:08.009Z,12.68
2022-12-11T21:18:34.713Z,14.45
2022-12-11T21:21:01.162Z,10.50
2022-12-11T21:23:27.632Z,10.50
2022-12-11T21:25:54.336Z,9.68
2022-12-11T21:28:21.244Z,12.68
2022-12-11T21:30:47.707Z,12.18
2022-12-11T21:33:14.290Z,12.07
2022-12-11T21:35:40.680Z,10.10
2022-12-11T21:38:07.095Z,10.25
2022-12-11T21:40:33.584Z,9.82
2022-12-11T21:43:00.014Z,9.80
2022-12-11T21:45:59.183Z,9.00
2022-12-11T21:48:13.775Z,9.02
2022-12-11T21:50:41.364Z,9.77
2022-12-11T21:53:07.895Z,9.30
2022-12-11T21:55:34.471Z,9.68
2022-12-11T21:58:00.881Z,9.07
2022-12-11T22:00:28.221Z,9.40
2022-12-11T22:02:54.740Z,9.85
2022-12-11T22:05:21.283Z,9.55
2022-12-11T22:07:47.765Z,10.65
2022-12-11T22:10:14.237Z,10.07
2022-12-11T22:12:40.622Z,10.07
2022-12-11T22:15:07.960Z,8.88
2022-12-11T22:17:34.459Z,11.27
2022-12-11T22:20:00.941Z,10.10
2022-12-11T22:22:27.500Z,9.67
2022-12-11T22:24:53.925Z,9.18
2022-12-11T22:27:23.700Z,9.73
2022-12-11T22:29:50.469Z,9.63
2022-12-11T22:32:16.947Z,8.40
2022-12-11T22:34:43.355Z,9.23
2022-12-11T22:37:09.744Z,8.00
2022-12-11T22:39:36.145Z,9.40
2022-12-11T22:42:02.645Z,9.27
2022-12-11T22:44:29.037Z,8.18
2022-12-11T22:46:55.487Z,9.30
2022-12-11T22:49:21.873Z,9.93
2022-12-11T22:51:49.082Z,9.63
2022-12-11T22:54:15.742Z,9.23
2022-12-11T22:56:42.154Z,10.65
2022-12-11T22:59:08.550Z,9.93
2022-12-11T23:01:34.993Z,9.80
2022-12-11T23:04:01.451Z,8.55
2022-12-11T23:06:27.940Z,9.15
2022-12-11T23:08:57.687Z,8.68
2022-12-11T23:11:30.199Z,8.97
2022-12-11T23:13:57.128Z,9.20
2022-12-11T23:16:25.674Z,9.13
2022-12-11T23:18:52.492Z,9.45
2022-12-11T23:21:19.045Z,9.52
2022-12-11T23:23:45.571Z,8.23
2022-12-11T23:26:13.939Z,10.32
2022-12-11T23:28:40.880Z,9.05
2022-12-11T23:31:08.599Z,8.98
2022-12-11T23:33:35.232Z,8.90
2022-12-11T23:36:02.155Z,9.73
2022-12-11T23:38:28.667Z,9.52
2022-12-11T23:40:55.399Z,8.90
2022-12-11T23:43:22.183Z,10.40
2022-12-11T23:45:48.654Z,9.48
2022-12-11T23:48:15.331Z,9.53
2022-12-11T23:50:43.034Z,10.35
2022-12-11T23:53:09.655Z,9.73
2022-12-11T23:55:39.459Z,8.20
2022-12-11T23:58:06.214Z,9.35
